Stations météo

réclame
Mon MeteoGroup
Dourbes, Belgique (6455): Température de l'air & dewpoint: 18.11.2017 15:00:00 - 24.11.2017 15:00:00 (CET)Dourbes, Belgique (6455): Vitesse du vent & gusts: 18.11.2017 15:00:00 - 24.11.2017 15:00:00 (CET)Dourbes, Belgique (6455): Direction du vent: 18.11.2017 15:00:00 - 24.11.2017 15:00:00 (CET)Dourbes, Belgique (6455): reduced air pressure: 18.11.2017 15:00:00 - 24.11.2017 15:00:00 (CET)Dourbes, Belgique (6455): Ensoleillement: 18.11.2017 15:00:00 - 24.11.2017 15:00:00 (CET)Dourbes, Belgique (6455): Quantités de précipitations: 18.11.2017 15:00:00 - 24.11.2017 15:00:00 (CET)
Date & Time tt [°C] td [°C] ff [km/h] ff [knt] fx [km/h] fx [knt] dd ppp [hPa] sd [min] rr [mm]
24.11.2017 15:00:00 - - - - - - - - - -
24.11.2017 14:00:00 7,9 6,8 4 2 8 4 WNW 1011,5 5 0,0
24.11.2017 13:00:00 7,8 7,2 4 2 8 5 SW 1011,4 0 0,0
24.11.2017 12:00:00 7,6 7,3 4 2 9 5 SSW 1011,2 0 0,0
24.11.2017 11:00:00 6,9 6,8 5 3 24 13 WNW 1011,0 0 0,0
24.11.2017 10:00:00 7,5 7,4 12 7 24 13 WNW 1009,7 0 0,1
24.11.2017 09:00:00 8,2 8,0 13 7 28 15 NW 1008,3 0 1,4
24.11.2017 08:00:00 9,8 9,2 13 7 44 24 WNW 1006,6 0 0,2
24.11.2017 07:00:00 10,8 10,2 22 12 56 30 SSW 1005,8 0 0,2
24.11.2017 06:00:00 11,0 10,4 29 16 61 33 S 1004,9 0 0,6
24.11.2017 05:00:00 11,0 10,6 27 15 49 26 S 1004,9 0 0,3
24.11.2017 04:00:00 9,1 9,1 14 8 25 13 S 1005,9 0 1,0
24.11.2017 03:00:00 8,5 8,3 5 3 16 9 S 1007,1 0 5,0
24.11.2017 02:00:00 8,8 8,6 4 2 13 7 WNW 1008,3 0 0,1
24.11.2017 01:00:00 8,8 8,8 4 2 8 5 SSE 1009,1 0 0,0
24.11.2017 00:00:00 8,9 8,7 5 3 8 4 S 1009,8 0 1,1
23.11.2017 23:00:00 9,1 8,8 4 2 16 9 W 1010,0 0 0,4
23.11.2017 22:00:00 9,4 9,2 6 3 12 7 WSW 1010,1 0 0,0
23.11.2017 21:00:00 9,4 9,2 6 3 12 6 SW 1009,7 0 0,0
23.11.2017 20:00:00 9,2 9,0 5 3 10 6 SW 1009,2 0 0,0
23.11.2017 19:00:00 9,0 8,7 7 4 11 6 SSW 1008,9 0 0,1
23.11.2017 18:00:00 10,0 9,5 6 4 15 8 SSW 1008,3 0 0,5
23.11.2017 17:00:00 10,9 9,5 9 5 42 23 SW 1007,1 0 1,7
23.11.2017 16:00:00 13,7 10,0 21 11 43 23 SSW 1005,5 3 0,0
23.11.2017 15:00:00 14,3 10,4 27 15 54 29 SSW 1004,5 42 0,0
23.11.2017 14:00:00 13,7 10,0 29 16 57 31 S 1004,2 3 0,0
23.11.2017 13:00:00 13,4 9,8 25 14 51 28 S 1004,1 0 0,0
23.11.2017 12:00:00 12,6 9,2 29 15 54 29 SSW 1003,6 0 0,0
23.11.2017 11:00:00 11,4 8,4 23 12 48 26 S 1003,0 4 0,2
23.11.2017 10:00:00 11,9 7,0 26 14 59 32 S 1002,2 8 0,1
23.11.2017 09:00:00 11,1 7,1 29 16 58 31 S 1001,2 0 0,0
23.11.2017 08:00:00 11,5 5,8 27 15 63 34 S 1000,1 0 0,0
23.11.2017 07:00:00 11,2 5,6 29 16 59 32 S 999,9 0 0,0
23.11.2017 06:00:00 11,2 5,4 33 18 61 33 S 1000,0 0 0,0
23.11.2017 05:00:00 10,7 5,2 29 16 56 30 S 1000,0 0 0,0
23.11.2017 04:00:00 10,2 4,8 27 15 57 31 S 1001,1 0 0,0
23.11.2017 03:00:00 9,6 4,4 31 17 54 29 S 1001,2 0 0,0
23.11.2017 02:00:00 9,5 4,0 23 13 45 24 S 1001,5 0 0,0
23.11.2017 01:00:00 10,2 3,7 22 12 41 22 S 1002,4 0 0,0
23.11.2017 00:00:00 10,4 4,0 23 13 44 24 S 1003,0 0 0,0
22.11.2017 23:00:00 10,3 4,1 24 13 46 25 S 1003,2 0 0,0
22.11.2017 22:00:00 11,0 3,7 25 14 55 30 S 1003,4 0 0,0
22.11.2017 21:00:00 11,4 3,7 29 16 55 30 S 1003,5 0 0,0
22.11.2017 20:00:00 10,6 4,1 18 10 33 18 S 1004,3 0 0,0
22.11.2017 19:00:00 10,3 4,6 11 6 29 16 S 1005,0 0 0,0
22.11.2017 18:00:00 9,8 5,7 14 8 28 15 S 1005,7 0 0,0
22.11.2017 17:00:00 10,0 5,8 13 7 29 16 S 1006,2 11 0,0
22.11.2017 16:00:00 10,7 6,0 20 11 35 19 S 1006,3 60 0,0
22.11.2017 15:00:00 10,9 6,0 19 11 37 20 S 1007,1 60 0,0
22.11.2017 14:00:00 11,3 6,1 19 10 32 18 SSE 1007,7 60 0,0
22.11.2017 13:00:00 11,0 6,2 11 6 28 15 S 1008,5 60 0,0
22.11.2017 12:00:00 9,6 6,6 14 8 32 17 S 1009,7 60 0,0
22.11.2017 11:00:00 8,6 6,7 18 10 32 17 S 1010,1 48 0,0
22.11.2017 10:00:00 7,9 6,5 19 11 36 19 S 1010,3 2 0,0
22.11.2017 09:00:00 8,1 6,6 22 12 38 21 S 1010,1 0 0,0
22.11.2017 08:00:00 8,4 7,1 18 10 31 17 S 1009,9 0 0,0
22.11.2017 07:00:00 8,4 7,3 18 10 35 19 SSW 1009,8 0 0,0
22.11.2017 06:00:00 8,5 7,3 17 9 35 19 S 1010,1 0 0,0
22.11.2017 05:00:00 8,6 7,4 22 12 35 19 S 1010,5 0 0,0
22.11.2017 04:00:00 8,6 7,4 19 10 34 18 S 1010,8 0 0,0
22.11.2017 03:00:00 8,5 7,3 19 11 35 19 S 1011,2 0 0,0
22.11.2017 02:00:00 8,4 7,1 17 9 33 18 S 1011,8 0 0,0
22.11.2017 01:00:00 8,3 7,2 18 10 35 19 S 1012,1 0 0,0
22.11.2017 00:00:00 8,1 7,1 19 10 31 17 S 1012,1 0 0,0
21.11.2017 23:00:00 7,9 7,0 15 8 32 18 S 1012,3 0 0,0
21.11.2017 22:00:00 7,9 6,9 15 8 30 16 S 1012,8 0 0,0
21.11.2017 21:00:00 7,8 6,9 16 8 31 17 S 1013,4 0 0,0
21.11.2017 20:00:00 7,7 6,7 16 9 29 16 S 1013,6 0 0,0
21.11.2017 19:00:00 7,6 6,7 14 8 29 16 SSW 1014,0 0 0,0
21.11.2017 18:00:00 7,7 6,8 16 9 29 16 SSW 1014,0 0 0,0
21.11.2017 17:00:00 7,5 6,7 16 9 32 17 S 1014,0 0 0,0
21.11.2017 16:00:00 7,7 6,8 18 10 36 20 SSW 1014,2 0 0,0
21.11.2017 15:00:00 8,0 7,1 16 8 32 17 SSW 1014,5 0 0,0
21.11.2017 14:00:00 8,2 7,2 21 11 36 19 SSW 1014,9 0 0,0
21.11.2017 13:00:00 8,1 7,5 18 10 - - SSW 1015,2 0 0,0
21.11.2017 12:00:00 8,2 8,0 16 9 37 20 SSW 1015,5 0 0,0
21.11.2017 11:00:00 8,1 8,1 14 8 29 16 SSW 1015,6 0 0,0
21.11.2017 10:00:00 8,1 8,1 14 8 31 17 SSW 1015,6 0 0,0
21.11.2017 09:00:00 8,2 8,2 13 7 32 17 SSW 1015,3 0 0,0
21.11.2017 08:00:00 8,3 8,3 12 7 28 15 SW 1015,0 0 0,2
21.11.2017 07:00:00 8,4 8,4 11 6 25 13 SW 1014,8 0 0,2
21.11.2017 06:00:00 8,5 8,5 12 7 30 16 SW 1014,7 0 0,7
21.11.2017 05:00:00 8,6 8,6 12 7 25 14 SW 1014,7 0 0,2
21.11.2017 04:00:00 8,6 8,6 14 7 29 15 SW 1014,9 0 0,4
21.11.2017 03:00:00 8,6 8,6 14 7 27 15 SW 1015,0 0 0,1
21.11.2017 02:00:00 8,7 8,7 12 7 29 15 SW 1014,9 0 0,1
21.11.2017 01:00:00 8,6 8,6 14 8 27 14 WSW 1015,1 0 0,2
21.11.2017 00:00:00 8,5 8,5 14 8 29 16 SW 1015,2 0 0,2
20.11.2017 23:00:00 8,2 8,2 14 8 32 18 SW 1015,0 0 0,4
20.11.2017 22:00:00 7,7 7,7 13 7 26 14 SW 1015,3 0 1,7
20.11.2017 21:00:00 7,7 7,7 16 9 32 17 SW 1015,3 0 1,8
20.11.2017 20:00:00 7,6 7,6 16 8 34 18 SW 1015,3 0 0,7
20.11.2017 19:00:00 7,2 7,2 13 7 27 15 SSW 1015,4 0 1,3
20.11.2017 18:00:00 7,2 7,2 13 7 42 23 SSW 1015,9 0 0,1
20.11.2017 17:00:00 6,5 6,5 19 10 38 20 SSW 1016,1 0 0,1
20.11.2017 16:00:00 5,9 5,9 15 8 31 17 SSW 1016,6 0 0,4
20.11.2017 15:00:00 5,4 5,4 11 6 31 17 SSW 1017,4 0 0,8
20.11.2017 14:00:00 5,0 4,9 14 8 29 16 SSW 1018,2 0 0,3
20.11.2017 13:00:00 4,6 4,4 13 7 28 15 SSW 1018,7 0 0,2
20.11.2017 12:00:00 4,5 3,9 15 8 29 16 SSW 1019,9 0 0,2
20.11.2017 11:00:00 4,4 3,3 13 7 24 13 SSW 1020,5 0 0,0
20.11.2017 10:00:00 3,2 3,0 9 5 19 10 S 1020,6 0 0,0
20.11.2017 09:00:00 1,8 1,8 9 5 14 8 SSW 1021,8 0 0,0
20.11.2017 08:00:00 1,0 1,0 7 4 13 7 SW 1021,9 0 0,0
20.11.2017 07:00:00 1,0 1,0 7 4 8 5 SW 1021,9 0 0,0
20.11.2017 06:00:00 0,2 0,2 5 3 8 4 SSE 1022,5 0 0,0
20.11.2017 05:00:00 -0,3 -0,3 4 2 6 3 S 1023,1 0 0,0
20.11.2017 04:00:00 -1,2 -1,2 4 2 6 3 S 1023,5 0 0,0
20.11.2017 03:00:00 -1,2 -1,2 4 2 4 2 S 1023,8 0 0,0
20.11.2017 02:00:00 -1,0 -1,0 4 2 5 3 SSW 1024,1 0 0,0
20.11.2017 01:00:00 -0,8 -0,8 4 2 6 3 SSW 1024,8 0 0,0
20.11.2017 00:00:00 -0,7 -0,7 4 2 6 3 S 1024,8 0 0,0
19.11.2017 23:00:00 0,1 0,0 4 2 6 3 SW 1024,9 0 0,0
19.11.2017 22:00:00 0,6 0,5 4 2 8 5 SW 1024,8 0 0,0
19.11.2017 21:00:00 0,9 0,6 4 2 13 7 SW 1024,3 0 0,0
19.11.2017 20:00:00 1,7 1,1 7 4 13 7 WSW 1024,1 0 0,0
19.11.2017 19:00:00 2,4 1,5 7 4 13 7 W 1023,3 0 0,0
19.11.2017 18:00:00 3,2 1,6 6 3 15 8 W 1022,8 0 0,0
19.11.2017 17:00:00 4,3 1,9 8 5 16 9 W 1022,4 7 0,0
19.11.2017 16:00:00 5,7 2,2 7 4 19 10 W 1022,1 9 0,0
19.11.2017 15:00:00 6,7 2,9 8 5 21 11 W 1021,9 16 0,0
19.11.2017 14:00:00 7,1 2,7 8 4 19 11 WNW 1021,7 44 0,0
19.11.2017 13:00:00 6,7 3,3 11 6 20 11 WNW 1021,7 57 0,0
19.11.2017 12:00:00 6,6 3,8 9 5 19 10 W 1021,3 60 0,0
19.11.2017 11:00:00 5,0 3,9 9 5 18 10 WNW 1021,4 60 0,0
19.11.2017 10:00:00 3,4 3,4 6 3 10 5 WSW 1021,0 60 0,0
19.11.2017 09:00:00 2,5 2,5 4 2 12 7 W 1020,6 24 0,0
19.11.2017 08:00:00 2,1 2,1 6 3 11 6 W 1019,8 0 0,0
19.11.2017 07:00:00 2,8 2,7 7 4 11 6 W 1019,2 0 0,0
19.11.2017 06:00:00 4,1 4,1 5 3 9 5 W 1018,9 0 0,0
19.11.2017 05:00:00 4,7 4,7 5 3 10 5 WSW 1018,4 0 0,0
19.11.2017 04:00:00 4,9 4,9 5 3 10 6 WSW 1018,1 0 0,0
19.11.2017 03:00:00 5,3 5,3 6 3 16 9 W 1017,9 0 0,0
19.11.2017 02:00:00 5,6 5,6 7 4 14 7 W 1017,7 0 0,0
19.11.2017 01:00:00 6,2 6,2 4 2 16 9 W 1017,9 0 0,1
19.11.2017 00:00:00 6,3 6,3 9 5 22 12 WSW 1017,6 0 0,7
18.11.2017 23:00:00 6,2 6,2 11 6 22 12 SW 1017,9 0 1,0
18.11.2017 22:00:00 5,9 5,9 11 6 26 14 SW 1018,5 0 1,5
18.11.2017 21:00:00 5,7 5,6 9 5 29 15 SW 1019,0 0 1,2
18.11.2017 20:00:00 5,2 5,1 11 6 26 14 SW 1019,4 0 1,2
18.11.2017 19:00:00 5,0 4,6 7 4 23 12 SW 1020,2 0 0,6
18.11.2017 18:00:00 5,6 3,9 10 6 22 12 SW 1020,6 0 0,0
18.11.2017 17:00:00 5,1 3,2 10 5 22 12 SSW 1020,9 0 0,0
18.11.2017 16:00:00 5,5 3,2 10 6 24 13 SSW 1021,2 32 0,0
18.11.2017 15:00:00 6,0 3,0 12 6 26 14 SW 1021,6 24 0,0

tt = Température de l'air
td = dewpoint
ff = Vitesse du vent
fx = gusts
dd = Direction du vent
ppp = reduced air pressure
sd = Ensoleillement
rr = Quantités de précipitations

stations d'obs. à proximité